createdAt,value
2022-11-16T00:00:05.869Z,9.50
2022-11-16T00:02:54.472Z,9.56
2022-11-16T00:05:27.956Z,9.56
2022-11-16T00:07:56.554Z,9.56
2022-11-16T00:10:24.658Z,9.52
2022-11-16T00:12:52.835Z,9.56
2022-11-16T00:15:20.579Z,9.60
2022-11-16T00:17:48.355Z,9.60
2022-11-16T00:20:16.355Z,9.60
2022-11-16T00:22:44.175Z,9.60
2022-11-16T00:25:11.917Z,9.60
2022-11-16T00:27:39.553Z,9.60
2022-11-16T00:30:09.923Z,9.50
2022-11-16T00:32:37.671Z,9.40
2022-11-16T00:35:06.032Z,9.40
2022-11-16T00:37:33.841Z,9.40
2022-11-16T00:40:01.549Z,9.40
2022-11-16T00:42:29.216Z,9.40
2022-11-16T00:44:56.860Z,9.40
2022-11-16T00:47:24.553Z,9.40
2022-11-16T00:49:52.246Z,9.40
2022-11-16T00:52:19.841Z,9.40
2022-11-16T00:54:47.626Z,9.40
2022-11-16T00:57:15.356Z,9.50
2022-11-16T00:59:43.049Z,9.50
2022-11-16T01:02:10.796Z,9.50
2022-11-16T01:04:38.510Z,9.50
2022-11-16T01:07:06.344Z,9.50
2022-11-16T01:09:34.190Z,9.48
2022-11-16T01:12:11.107Z,9.50
2022-11-16T01:14:45.892Z,9.50
2022-11-16T01:17:15.022Z,9.58
2022-11-16T01:19:42.763Z,9.60
2022-11-16T01:22:10.614Z,9.60
2022-11-16T01:24:38.287Z,9.60
2022-11-16T01:27:05.987Z,9.60
2022-11-16T01:29:33.678Z,9.60
2022-11-16T01:32:01.410Z,9.60
2022-11-16T01:34:29.061Z,9.60
2022-11-16T01:36:56.773Z,9.60
2022-11-16T01:39:24.546Z,9.60
2022-11-16T01:41:52.369Z,9.60
2022-11-16T01:44:32.241Z,9.62
2022-11-16T01:47:03.006Z,9.70
2022-11-16T01:49:35.110Z,9.70
2022-11-16T01:52:09.862Z,9.70
2022-11-16T01:54:42.689Z,9.70
2022-11-16T01:57:18.218Z,9.70
2022-11-16T01:59:49.919Z,9.70
2022-11-16T02:02:17.634Z,9.70
2022-11-16T02:04:48.808Z,9.70
2022-11-16T02:07:26.697Z,9.72
2022-11-16T02:10:06.669Z,9.80
2022-11-16T02:13:07.402Z,9.80
2022-11-16T02:15:50.207Z,9.76
2022-11-16T02:19:07.723Z,9.70
2022-11-16T02:21:51.363Z,9.70
2022-11-16T02:24:42.668Z,9.60
2022-11-16T02:27:52.762Z,9.60
2022-11-16T02:30:21.803Z,9.60
2022-11-16T02:33:11.656Z,9.60
2022-11-16T02:35:49.070Z,9.60
2022-11-16T02:38:27.749Z,9.60
2022-11-16T02:41:05.034Z,9.64
2022-11-16T02:43:42.972Z,9.70
2022-11-16T02:46:21.771Z,9.70
2022-11-16T02:48:59.017Z,9.70
2022-11-16T02:51:29.055Z,9.70
2022-11-16T02:54:14.662Z,9.70
2022-11-16T02:57:02.049Z,9.70
2022-11-16T02:59:49.058Z,9.70
2022-11-16T03:02:50.919Z,9.70
2022-11-16T03:05:32.286Z,9.70
2022-11-16T03:08:21.042Z,9.68
2022-11-16T03:11:24.529Z,9.60
2022-11-16T03:13:57.770Z,9.60
2022-11-16T03:16:50.941Z,9.60
2022-11-16T03:19:42.514Z,9.60
2022-11-16T03:22:44.147Z,9.60
2022-11-16T03:25:18.371Z,9.60
2022-11-16T03:28:07.868Z,9.58
2022-11-16T03:30:44.181Z,9.50
2022-11-16T03:33:39.796Z,9.40
2022-11-16T03:36:29.451Z,9.30
2022-11-16T03:39:05.498Z,9.30
2022-11-16T03:41:37.339Z,9.20
2022-11-16T03:44:08.888Z,9.20
2022-11-16T03:46:37.082Z,9.18
2022-11-16T03:49:06.058Z,9.10
2022-11-16T03:51:33.883Z,9.10
2022-11-16T03:54:01.594Z,9.10
2022-11-16T03:56:29.401Z,9.08
2022-11-16T03:58:57.160Z,9.00
2022-11-16T04:01:24.923Z,9.04
2022-11-16T04:03:52.579Z,9.00
2022-11-16T04:06:46.639Z,9.00
2022-11-16T04:09:32.834Z,9.00
2022-11-16T04:12:19.364Z,9.00
2022-11-16T04:15:05.603Z,9.00
2022-11-16T04:17:52.124Z,8.96
2022-11-16T04:20:38.856Z,8.90
2022-11-16T04:23:32.733Z,8.90
2022-11-16T04:26:00.586Z,8.90
2022-11-16T04:28:34.449Z,8.90
2022-11-16T04:31:24.041Z,8.90
2022-11-16T04:34:11.980Z,8.90
2022-11-16T04:36:58.395Z,8.84
2022-11-16T04:39:26.054Z,8.80
2022-11-16T04:42:12.518Z,8.76
2022-11-16T04:44:59.010Z,8.70
2022-11-16T04:47:26.747Z,8.70
2022-11-16T04:49:54.463Z,8.70
2022-11-16T04:52:22.106Z,8.66
2022-11-16T04:54:50.012Z,8.60
2022-11-16T04:57:17.640Z,8.60
2022-11-16T04:59:45.347Z,8.60
2022-11-16T05:02:13.252Z,8.70
2022-11-16T05:04:43.780Z,8.70
2022-11-16T05:07:14.561Z,8.68
2022-11-16T05:09:48.207Z,8.70
2022-11-16T05:12:24.954Z,8.60
2022-11-16T05:14:55.236Z,8.58
2022-11-16T05:17:25.517Z,8.50
2022-11-16T05:20:13.206Z,8.50
2022-11-16T05:22:41.275Z,8.50
2022-11-16T05:25:10.868Z,8.48
2022-11-16T05:27:38.979Z,8.40
2022-11-16T05:30:07.686Z,8.30
2022-11-16T05:32:35.349Z,8.20
2022-11-16T05:35:03.367Z,8.20
2022-11-16T05:37:31.017Z,8.10
2022-11-16T05:39:58.877Z,8.10
2022-11-16T05:42:26.706Z,8.10
2022-11-16T05:44:54.512Z,8.10
2022-11-16T05:47:22.331Z,8.10
2022-11-16T05:49:50.003Z,8.10
2022-11-16T05:52:17.648Z,8.10
2022-11-16T05:54:45.442Z,8.10
2022-11-16T05:57:13.108Z,8.00
2022-11-16T05:59:40.705Z,8.00
2022-11-16T06:02:08.588Z,8.00
2022-11-16T06:04:36.314Z,8.00
2022-11-16T06:07:04.315Z,8.00
2022-11-16T06:09:32.126Z,8.00
2022-11-16T06:11:59.776Z,7.98
2022-11-16T06:14:27.592Z,7.90
2022-11-16T06:16:55.304Z,7.90
2022-11-16T06:19:27.020Z,7.90
2022-11-16T06:21:58.920Z,7.90
2022-11-16T06:24:26.581Z,7.90
2022-11-16T06:26:54.537Z,7.84
2022-11-16T06:29:22.375Z,7.80
2022-11-16T06:31:50.451Z,7.80
2022-11-16T06:34:18.109Z,7.76
2022-11-16T06:36:45.842Z,7.70
2022-11-16T06:39:13.552Z,7.80
2022-11-16T06:41:41.701Z,7.80
2022-11-16T06:44:09.966Z,7.82
2022-11-16T06:46:37.578Z,7.84
2022-11-16T06:49:05.272Z,7.80
2022-11-16T06:51:32.917Z,7.80
2022-11-16T06:54:00.623Z,7.78
2022-11-16T06:56:28.432Z,7.70
2022-11-16T06:58:57.220Z,7.70
2022-11-16T07:01:24.991Z,7.70
2022-11-16T07:03:52.762Z,7.70
2022-11-16T07:06:20.459Z,7.70
2022-11-16T07:08:48.153Z,7.70
2022-11-16T07:11:15.857Z,7.76
2022-11-16T07:13:43.510Z,7.80
2022-11-16T07:16:12.514Z,7.80
2022-11-16T07:18:42.086Z,7.80
2022-11-16T07:21:14.296Z,7.80
2022-11-16T07:23:42.144Z,7.80
2022-11-16T07:26:11.374Z,7.80
2022-11-16T07:28:44.906Z,7.80
2022-11-16T07:31:16.609Z,7.80
2022-11-16T07:33:44.291Z,7.70
2022-11-16T07:36:14.706Z,7.70
2022-11-16T07:38:42.593Z,7.68
2022-11-16T07:41:14.743Z,7.60
2022-11-16T07:43:42.597Z,7.60
2022-11-16T07:49:11.311Z,7.60
2022-11-16T07:51:39.297Z,7.62
2022-11-16T07:54:07.017Z,7.60
2022-11-16T07:56:34.711Z,7.70
2022-11-16T07:59:02.431Z,7.70
2022-11-16T08:01:30.199Z,7.70
2022-11-16T08:03:57.954Z,7.70
2022-11-16T08:06:30.904Z,7.70
2022-11-16T08:08:59.637Z,7.64
2022-11-16T08:11:27.751Z,7.60
2022-11-16T08:13:57.339Z,7.60
2022-11-16T08:16:25.325Z,7.54
2022-11-16T08:18:53.084Z,7.56
2022-11-16T08:21:20.767Z,7.60
2022-11-16T08:23:51.553Z,7.60
2022-11-16T08:26:22.567Z,7.60
2022-11-16T08:28:53.557Z,7.60
2022-11-16T08:31:26.238Z,7.60
2022-11-16T08:33:54.411Z,7.60
2022-11-16T08:36:22.280Z,7.50
2022-11-16T08:38:51.365Z,7.50
2022-11-16T08:41:20.593Z,7.50
2022-11-16T08:43:50.647Z,7.50
2022-11-16T08:46:18.499Z,7.50
2022-11-16T08:48:46.311Z,7.50
2022-11-16T08:54:05.150Z,7.50
2022-11-16T08:56:33.335Z,7.50
2022-11-16T08:59:01.190Z,7.50
2022-11-16T09:01:32.581Z,7.50
2022-11-16T09:04:00.713Z,7.50
2022-11-16T09:06:28.517Z,7.50
2022-11-16T09:08:57.065Z,7.50
2022-11-16T09:11:26.056Z,7.50
2022-11-16T09:16:41.871Z,7.52
2022-11-16T09:19:10.853Z,7.58
2022-11-16T09:21:38.637Z,7.50
2022-11-16T09:24:06.439Z,7.50
2022-11-16T09:26:34.061Z,7.50
2022-11-16T09:29:04.367Z,7.50
2022-11-16T09:31:37.422Z,7.50
2022-11-16T09:34:05.668Z,7.44
2022-11-16T09:36:34.057Z,7.40
2022-11-16T09:39:28.919Z,7.40
2022-11-16T09:42:19.587Z,7.50
2022-11-16T09:45:07.703Z,7.50
2022-11-16T09:47:44.963Z,7.50
2022-11-16T09:50:43.440Z,7.50
2022-11-16T09:53:40.657Z,7.50
2022-11-16T09:56:22.254Z,7.50
2022-11-16T09:58:56.265Z,7.50
2022-11-16T10:01:32.681Z,7.50
2022-11-16T10:04:18.787Z,7.46
2022-11-16T10:06:56.043Z,7.46
2022-11-16T10:09:25.756Z,7.50
2022-11-16T10:12:22.121Z,7.40
2022-11-16T10:15:12.855Z,7.40
2022-11-16T10:18:00.466Z,7.38
2022-11-16T10:21:13.510Z,7.30
2022-11-16T10:24:05.211Z,7.22
2022-11-16T10:27:09.757Z,7.20
2022-11-16T10:30:09.370Z,7.20
2022-11-16T10:32:47.790Z,7.20
2022-11-16T10:35:22.873Z,7.28
2022-11-16T10:37:52.418Z,7.20
2022-11-16T10:40:44.711Z,7.20
2022-11-16T10:43:28.452Z,7.20
2022-11-16T10:46:19.024Z,7.20
2022-11-16T10:49:07.285Z,7.20
2022-11-16T10:51:35.043Z,7.20
2022-11-16T10:54:12.221Z,7.20
2022-11-16T10:56:48.380Z,7.20
2022-11-16T10:59:19.905Z,7.20
2022-11-16T11:01:57.525Z,7.20
2022-11-16T11:04:29.356Z,7.18
2022-11-16T11:07:00.699Z,7.10
2022-11-16T11:09:37.063Z,7.10
2022-11-16T11:12:36.611Z,7.10
2022-11-16T11:15:26.145Z,7.10
2022-11-16T11:18:24.055Z,7.10
2022-11-16T11:21:20.106Z,7.10
2022-11-16T11:23:59.493Z,7.06
2022-11-16T11:26:41.600Z,7.02
2022-11-16T11:29:34.448Z,7.06
2022-11-16T11:32:13.360Z,7.08
2022-11-16T11:34:56.278Z,7.00
2022-11-16T11:37:31.863Z,7.00
2022-11-16T11:40:20.172Z,7.00
2022-11-16T11:42:59.854Z,7.00
2022-11-16T11:46:14.055Z,6.92
2022-11-16T11:49:03.516Z,6.90
2022-11-16T11:51:41.081Z,6.90
2022-11-16T11:54:45.636Z,6.90
2022-11-16T11:57:22.210Z,6.90
2022-11-16T11:59:53.677Z,6.90
2022-11-16T12:02:36.221Z,6.90
2022-11-16T12:05:45.673Z,6.90
2022-11-16T12:09:12.093Z,6.90
2022-11-16T12:11:52.201Z,6.90
2022-11-16T12:14:43.962Z,6.90
2022-11-16T12:17:33.287Z,6.90
2022-11-16T12:20:41.427Z,6.90
2022-11-16T12:23:38.894Z,6.90
2022-11-16T12:26:38.578Z,6.90
2022-11-16T12:29:25.671Z,6.88
2022-11-16T12:32:34.823Z,6.80
2022-11-16T12:35:37.979Z,6.80
2022-11-16T12:39:00.959Z,6.80
2022-11-16T12:41:51.093Z,6.80
2022-11-16T12:44:58.849Z,6.70
2022-11-16T12:47:48.494Z,6.70
2022-11-16T12:50:59.799Z,6.70
2022-11-16T12:53:55.201Z,6.70
2022-11-16T12:56:59.666Z,6.70
2022-11-16T13:00:01.305Z,6.80
2022-11-16T13:03:10.196Z,6.80
2022-11-16T13:05:59.012Z,6.80
2022-11-16T13:09:04.555Z,6.90
2022-11-16T13:11:40.175Z,6.90
2022-11-16T13:14:20.118Z,6.90
2022-11-16T13:16:50.163Z,6.90
2022-11-16T13:19:18.528Z,6.90
2022-11-16T13:22:21.935Z,6.90
2022-11-16T13:25:40.472Z,6.80
2022-11-16T13:28:30.645Z,6.80
2022-11-16T13:31:19.416Z,6.80
2022-11-16T13:33:53.397Z,6.80
2022-11-16T13:36:45.527Z,6.84
2022-11-16T13:39:23.044Z,6.90
2022-11-16T13:42:12.091Z,6.90
2022-11-16T13:44:40.158Z,6.90
2022-11-16T13:47:24.807Z,6.80
2022-11-16T13:49:57.780Z,6.80
2022-11-16T13:53:40.869Z,6.72
2022-11-16T13:55:42.796Z,6.80
2022-11-16T13:58:20.869Z,6.80
2022-11-16T14:01:18.946Z,6.88
2022-11-16T14:03:52.283Z,6.80
2022-11-16T14:06:19.884Z,6.80
2022-11-16T14:08:51.802Z,6.80
2022-11-16T14:11:37.573Z,6.80
2022-11-16T14:14:11.702Z,6.80
2022-11-16T14:16:49.432Z,6.80
2022-11-16T14:19:47.618Z,6.80
2022-11-16T14:23:11.324Z,6.80
2022-11-16T14:26:21.675Z,6.80
2022-11-16T14:29:14.237Z,6.80
2022-11-16T14:31:54.176Z,6.80
2022-11-16T14:34:43.528Z,6.80
2022-11-16T14:37:34.855Z,6.80
2022-11-16T14:40:20.560Z,6.82
2022-11-16T14:43:19.959Z,6.80
2022-11-16T14:45:56.272Z,6.80
2022-11-16T14:48:26.245Z,6.80
2022-11-16T14:51:10.012Z,6.80
2022-11-16T14:53:44.438Z,6.80
2022-11-16T14:56:18.517Z,6.80
2022-11-16T14:59:01.387Z,6.80
2022-11-16T15:01:39.644Z,6.80
2022-11-16T15:04:11.265Z,6.80
2022-11-16T15:06:49.841Z,6.70
2022-11-16T15:09:33.717Z,6.70
2022-11-16T15:12:32.873Z,6.70
2022-11-16T15:15:31.148Z,6.70
2022-11-16T15:17:58.722Z,6.80
2022-11-16T15:20:33.882Z,6.72
2022-11-16T15:23:04.967Z,6.70
2022-11-16T15:25:37.544Z,6.80
2022-11-16T15:28:21.033Z,6.76
2022-11-16T15:31:02.239Z,6.70
2022-11-16T15:33:33.307Z,6.70
2022-11-16T15:36:25.627Z,6.70
2022-11-16T15:38:57.496Z,6.70
2022-11-16T15:41:29.293Z,6.62
2022-11-16T15:44:16.540Z,6.66
2022-11-16T15:46:50.248Z,6.70
2022-11-16T15:49:40.540Z,6.70
2022-11-16T15:52:08.250Z,6.70
2022-11-16T15:54:55.564Z,6.70
2022-11-16T15:57:25.128Z,6.70
2022-11-16T15:59:56.799Z,6.70
2022-11-16T16:02:31.260Z,6.64
2022-11-16T16:04:59.021Z,6.60
2022-11-16T16:07:42.479Z,6.60
2022-11-16T16:10:25.295Z,6.60
2022-11-16T16:12:59.943Z,6.60
2022-11-16T16:15:36.031Z,6.60
2022-11-16T16:18:36.801Z,6.60
2022-11-16T16:21:04.708Z,6.60
2022-11-16T16:23:32.722Z,6.60
2022-11-16T16:26:03.972Z,6.60
2022-11-16T16:28:31.608Z,6.60
2022-11-16T16:30:59.442Z,6.68
2022-11-16T16:33:29.854Z,6.60
2022-11-16T16:35:57.768Z,6.56
2022-11-16T16:38:25.505Z,6.50
2022-11-16T16:40:53.281Z,6.48
2022-11-16T16:43:20.968Z,6.50
2022-11-16T16:45:48.642Z,6.50
2022-11-16T16:48:16.407Z,6.42
2022-11-16T16:50:44.281Z,6.40
2022-11-16T16:53:15.353Z,6.30
2022-11-16T16:55:43.925Z,6.30
2022-11-16T16:58:13.663Z,6.22
2022-11-16T17:00:42.204Z,6.20
2022-11-16T17:03:10.124Z,6.20
2022-11-16T17:05:37.821Z,6.16
2022-11-16T17:08:06.630Z,6.10
2022-11-16T17:10:34.528Z,6.10
2022-11-16T17:13:03.188Z,6.00
2022-11-16T17:15:31.025Z,6.00
2022-11-16T17:17:59.938Z,6.00
2022-11-16T17:20:27.812Z,6.00
2022-11-16T17:22:56.431Z,6.00
2022-11-16T17:25:25.148Z,5.90
2022-11-16T17:27:53.016Z,5.84
2022-11-16T17:30:20.792Z,5.80
2022-11-16T17:32:48.580Z,5.80
2022-11-16T17:35:16.854Z,5.76
2022-11-16T17:37:44.634Z,5.70
2022-11-16T17:40:13.087Z,5.70
2022-11-16T17:42:41.012Z,5.70
2022-11-16T17:45:09.191Z,5.70
2022-11-16T17:47:36.962Z,5.66
2022-11-16T17:50:05.367Z,5.60
2022-11-16T17:52:33.043Z,5.60
2022-11-16T17:55:00.817Z,5.60
2022-11-16T17:57:28.384Z,5.60
2022-11-16T17:59:56.124Z,5.50
2022-11-16T18:02:23.793Z,5.50
2022-11-16T18:04:51.692Z,5.40
2022-11-16T18:07:19.477Z,5.40
2022-11-16T18:09:47.151Z,5.40
2022-11-16T18:12:14.837Z,5.40
2022-11-16T18:14:54.770Z,5.40
2022-11-16T18:17:31.360Z,5.30
2022-11-16T18:19:59.066Z,5.20
2022-11-16T18:22:27.006Z,5.20
2022-11-16T18:24:54.828Z,5.20
2022-11-16T18:27:22.793Z,5.20
2022-11-16T18:29:51.789Z,5.20
2022-11-16T18:32:19.814Z,5.20
2022-11-16T18:34:47.557Z,5.20
2022-11-16T18:37:15.216Z,5.10
2022-11-16T18:39:42.855Z,5.10
2022-11-16T18:42:12.330Z,5.10
2022-11-16T18:44:40.040Z,5.10
2022-11-16T18:47:07.707Z,5.10
2022-11-16T18:49:37.248Z,5.00
2022-11-16T18:52:05.169Z,5.00
2022-11-16T18:54:32.855Z,4.98
2022-11-16T18:57:00.560Z,5.00
2022-11-16T18:59:28.286Z,5.00
2022-11-16T19:01:55.944Z,4.94
2022-11-16T19:04:23.798Z,4.94
2022-11-16T19:06:53.327Z,4.90
2022-11-16T19:09:21.160Z,4.90
2022-11-16T19:11:50.734Z,4.90
2022-11-16T19:14:18.545Z,4.90
2022-11-16T19:16:54.005Z,4.90
2022-11-16T19:19:24.389Z,4.92
2022-11-16T19:21:52.185Z,4.92
2022-11-16T19:24:20.192Z,4.98
2022-11-16T19:26:47.805Z,5.00
2022-11-16T19:29:15.552Z,4.90
2022-11-16T19:31:43.216Z,4.90
2022-11-16T19:34:13.177Z,4.90
2022-11-16T19:36:41.036Z,4.90
2022-11-16T19:39:08.760Z,4.90
2022-11-16T19:41:36.485Z,5.00
2022-11-16T19:44:04.217Z,5.00
2022-11-16T19:46:33.916Z,5.00
2022-11-16T19:49:01.720Z,4.96
2022-11-16T19:51:33.643Z,4.90
2022-11-16T19:54:02.775Z,4.90
2022-11-16T19:56:31.050Z,4.90
2022-11-16T19:58:58.746Z,4.90
2022-11-16T20:01:29.355Z,4.92
2022-11-16T20:04:00.886Z,4.90
2022-11-16T20:06:32.529Z,4.90
2022-11-16T20:09:08.601Z,4.90
2022-11-16T20:11:39.103Z,4.90
2022-11-16T20:14:10.257Z,4.90
2022-11-16T20:16:41.453Z,4.90
2022-11-16T20:19:10.346Z,4.86
2022-11-16T20:21:42.789Z,4.80
2022-11-16T20:24:15.938Z,4.90
2022-11-16T20:26:49.212Z,4.80
2022-11-16T20:29:18.974Z,4.80
2022-11-16T20:31:47.289Z,4.80
2022-11-16T20:34:17.529Z,4.80
2022-11-16T20:36:47.652Z,4.78
2022-11-16T20:39:19.248Z,4.80
2022-11-16T20:41:48.212Z,4.80
2022-11-16T20:44:23.700Z,4.76
2022-11-16T20:46:52.631Z,4.80
2022-11-16T20:49:20.819Z,4.80
2022-11-16T20:51:50.283Z,4.80
2022-11-16T20:54:18.435Z,4.80
2022-11-16T20:56:48.192Z,4.80
2022-11-16T20:59:16.770Z,4.84
2022-11-16T21:01:47.843Z,4.82
2022-11-16T21:04:16.435Z,4.80
2022-11-16T21:06:44.303Z,4.80
2022-11-16T21:09:15.607Z,4.80
2022-11-16T21:12:02.010Z,4.80
2022-11-16T21:14:29.773Z,4.80
2022-11-16T21:16:57.396Z,4.90
2022-11-16T21:19:25.113Z,4.88
2022-11-16T21:21:52.689Z,4.80
2022-11-16T21:24:21.773Z,4.80
2022-11-16T21:26:49.838Z,4.80
2022-11-16T21:29:17.818Z,4.80
2022-11-16T21:31:45.524Z,4.72
2022-11-16T21:34:13.768Z,4.78
2022-11-16T21:36:41.424Z,4.80
2022-11-16T21:39:09.635Z,4.78
2022-11-16T21:41:37.596Z,4.80
2022-11-16T21:44:05.395Z,4.80
2022-11-16T21:46:33.125Z,4.80
2022-11-16T21:49:00.788Z,4.80
2022-11-16T21:51:28.503Z,4.80
2022-11-16T21:53:56.655Z,4.80
2022-11-16T21:56:26.150Z,4.80
2022-11-16T21:58:54.593Z,4.82
2022-11-16T22:01:23.732Z,4.90
2022-11-16T22:04:10.868Z,4.90
2022-11-16T22:06:57.531Z,4.90
2022-11-16T22:09:25.245Z,4.90
2022-11-16T22:11:52.922Z,4.90
2022-11-16T22:14:20.739Z,4.90
2022-11-16T22:16:48.420Z,4.88
2022-11-16T22:19:16.020Z,4.80
2022-11-16T22:21:43.825Z,4.80
2022-11-16T22:24:11.481Z,4.80
2022-11-16T22:26:40.024Z,4.80
2022-11-16T22:29:07.804Z,4.84
2022-11-16T22:31:36.301Z,4.88
2022-11-16T22:34:04.261Z,4.84
2022-11-16T22:36:31.934Z,4.86
2022-11-16T22:39:00.715Z,4.84
2022-11-16T22:41:28.379Z,4.80
2022-11-16T22:43:56.084Z,4.80
2022-11-16T22:46:23.721Z,4.80
2022-11-16T22:48:51.439Z,4.80
2022-11-16T22:51:30.217Z,4.80
2022-11-16T22:54:01.632Z,4.80
2022-11-16T22:56:32.176Z,4.80
2022-11-16T22:59:05.411Z,4.80
2022-11-16T23:01:33.407Z,4.80
2022-11-16T23:04:01.719Z,4.70
2022-11-16T23:06:29.511Z,4.70
2022-11-16T23:08:57.666Z,4.70
2022-11-16T23:11:46.965Z,4.80
2022-11-16T23:14:36.146Z,4.80
2022-11-16T23:17:04.851Z,4.70
2022-11-16T23:19:52.356Z,4.70
2022-11-16T23:22:40.702Z,4.70
2022-11-16T23:25:30.283Z,4.70
2022-11-16T23:28:06.735Z,4.70
2022-11-16T23:30:36.460Z,4.68
2022-11-16T23:33:04.180Z,4.70
2022-11-16T23:35:32.457Z,4.70
2022-11-16T23:38:06.132Z,4.70
2022-11-16T23:40:39.750Z,4.60
2022-11-16T23:43:29.600Z,4.60
2022-11-16T23:45:57.283Z,4.60
2022-11-16T23:48:25.008Z,4.60
2022-11-16T23:50:52.699Z,4.56
2022-11-16T23:53:20.436Z,4.50
2022-11-16T23:55:48.041Z,4.50
2022-11-16T23:58:15.740Z,4.50
